createdAt,value
2023-03-29T00:01:36.172Z,7.73
2023-03-29T00:04:04.758Z,7.63
2023-03-29T00:06:31.545Z,7.42
2023-03-29T00:08:57.900Z,7.03
2023-03-29T00:11:25.289Z,7.00
2023-03-29T00:13:52.131Z,6.90
2023-03-29T00:16:18.931Z,6.60
2023-03-29T00:18:45.443Z,6.55
2023-03-29T00:21:11.918Z,6.24
2023-03-29T00:23:38.354Z,6.28
2023-03-29T00:26:07.178Z,6.39
2023-03-29T00:28:34.406Z,6.24
2023-03-29T00:31:11.717Z,6.00
2023-03-29T00:33:39.042Z,6.04
2023-03-29T00:36:06.663Z,5.82
2023-03-29T00:38:33.310Z,6.00
2023-03-29T00:41:00.037Z,5.85
2023-03-29T00:43:26.702Z,5.66
2023-03-29T00:45:53.595Z,5.99
2023-03-29T00:48:23.074Z,5.69
2023-03-29T00:50:54.301Z,5.41
2023-03-29T00:53:25.916Z,5.37
2023-03-29T00:56:09.401Z,5.27
2023-03-29T00:58:47.043Z,5.22
2023-03-29T01:01:23.786Z,5.16
2023-03-29T01:03:54.801Z,5.17
2023-03-29T01:06:24.990Z,5.15
2023-03-29T01:08:56.177Z,5.18
2023-03-29T01:11:27.530Z,5.18
2023-03-29T01:14:04.180Z,5.16
2023-03-29T01:16:33.388Z,5.09
2023-03-29T01:19:00.099Z,5.08
2023-03-29T01:21:33.221Z,5.12
2023-03-29T01:24:10.254Z,5.17
2023-03-29T01:27:12.131Z,5.22
2023-03-29T01:29:43.663Z,5.07
2023-03-29T01:32:16.253Z,5.21
2023-03-29T01:34:46.476Z,5.26
2023-03-29T01:37:25.019Z,5.28
2023-03-29T01:39:52.187Z,5.27
2023-03-29T01:42:32.261Z,5.23
2023-03-29T01:45:22.696Z,5.25
2023-03-29T01:47:58.434Z,5.24
2023-03-29T01:50:37.032Z,5.24
2023-03-29T01:53:10.155Z,5.23
2023-03-29T01:55:41.463Z,5.12
2023-03-29T01:58:11.699Z,5.49
2023-03-29T02:00:39.314Z,5.74
2023-03-29T02:03:08.984Z,6.01
2023-03-29T02:05:37.874Z,5.60
2023-03-29T02:08:07.677Z,5.38
2023-03-29T02:10:35.718Z,5.51
2023-03-29T02:13:02.245Z,5.51
2023-03-29T02:15:28.701Z,5.32
2023-03-29T02:17:55.166Z,5.23
2023-03-29T02:20:24.143Z,5.24
2023-03-29T02:23:16.548Z,5.27
2023-03-29T02:25:44.281Z,5.32
2023-03-29T02:28:10.623Z,5.45
2023-03-29T02:31:01.667Z,5.56
2023-03-29T02:33:52.632Z,5.39
2023-03-29T02:36:24.091Z,5.50
2023-03-29T02:38:52.671Z,5.79
2023-03-29T02:41:20.066Z,5.96
2023-03-29T02:43:47.961Z,5.97
2023-03-29T02:46:16.569Z,5.79
2023-03-29T02:48:46.626Z,5.79
2023-03-29T02:51:20.438Z,5.63
2023-03-29T02:54:03.242Z,5.45
2023-03-29T02:56:29.900Z,5.30
2023-03-29T02:58:56.591Z,5.37
2023-03-29T03:01:23.267Z,5.49
2023-03-29T03:03:49.785Z,5.42
2023-03-29T03:06:16.609Z,5.47
2023-03-29T03:08:42.912Z,5.66
2023-03-29T03:11:09.298Z,5.49
2023-03-29T03:13:35.682Z,5.30
2023-03-29T03:16:02.263Z,5.46
2023-03-29T03:18:28.983Z,5.31
2023-03-29T03:20:57.027Z,5.51
2023-03-29T03:23:23.398Z,5.37
2023-03-29T03:25:51.222Z,5.42
2023-03-29T03:28:17.532Z,5.27
2023-03-29T03:30:43.856Z,5.28
2023-03-29T03:33:10.324Z,5.38
2023-03-29T03:35:36.775Z,5.39
2023-03-29T03:38:03.093Z,5.38
2023-03-29T03:40:29.758Z,5.33
2023-03-29T03:42:56.181Z,5.32
2023-03-29T03:45:22.540Z,5.35
2023-03-29T03:47:50.750Z,5.22
2023-03-29T03:50:17.987Z,5.34
2023-03-29T03:52:44.590Z,5.22
2023-03-29T03:55:10.911Z,5.28
2023-03-29T03:57:37.498Z,5.24
2023-03-29T04:00:06.729Z,5.33
2023-03-29T04:02:33.195Z,5.28
2023-03-29T04:04:59.652Z,5.29
2023-03-29T04:07:25.957Z,5.35
2023-03-29T04:09:52.781Z,5.32
2023-03-29T04:12:19.151Z,5.24
2023-03-29T04:14:45.504Z,5.35
2023-03-29T04:17:11.902Z,5.33
2023-03-29T04:19:38.615Z,5.37
2023-03-29T04:22:04.911Z,5.30
2023-03-29T04:24:31.265Z,5.29
2023-03-29T04:26:57.796Z,5.34
2023-03-29T04:29:24.134Z,5.37
2023-03-29T04:31:50.576Z,5.33
2023-03-29T04:34:17.028Z,5.34
2023-03-29T04:36:43.476Z,5.36
2023-03-29T04:39:09.889Z,5.30
2023-03-29T04:41:36.280Z,5.42
2023-03-29T04:44:02.689Z,5.37
2023-03-29T04:46:29.764Z,5.47
2023-03-29T04:48:56.210Z,5.39
2023-03-29T04:51:22.656Z,5.56
2023-03-29T04:53:51.820Z,5.53
2023-03-29T04:56:18.283Z,5.55
2023-03-29T04:58:44.720Z,6.21
2023-03-29T05:01:11.644Z,6.01
2023-03-29T05:03:39.352Z,5.80
2023-03-29T05:06:07.526Z,5.74
2023-03-29T05:08:35.347Z,5.77
2023-03-29T05:11:02.018Z,5.70
2023-03-29T05:13:28.543Z,5.70
2023-03-29T05:15:54.970Z,5.89
2023-03-29T05:18:21.360Z,5.98
2023-03-29T05:20:48.102Z,6.36
2023-03-29T05:23:14.702Z,6.35
2023-03-29T05:25:41.115Z,6.11
2023-03-29T05:28:07.948Z,6.00
2023-03-29T05:30:34.272Z,6.06
2023-03-29T05:33:02.745Z,5.95
2023-03-29T05:35:29.318Z,5.76
2023-03-29T05:37:55.753Z,5.67
2023-03-29T05:40:23.660Z,6.01
2023-03-29T05:42:49.981Z,5.87
2023-03-29T05:45:16.446Z,5.94
2023-03-29T05:47:42.915Z,5.79
2023-03-29T05:50:10.386Z,6.12
2023-03-29T05:52:36.942Z,5.99
2023-03-29T05:55:05.449Z,6.02
2023-03-29T05:57:32.177Z,5.99
2023-03-29T05:59:59.027Z,6.64
2023-03-29T06:02:25.581Z,6.40
2023-03-29T06:04:52.738Z,6.29
2023-03-29T06:07:19.299Z,6.27
2023-03-29T06:09:45.705Z,6.29
2023-03-29T06:12:12.083Z,6.65
2023-03-29T06:14:38.523Z,6.76
2023-03-29T06:17:05.096Z,6.52
2023-03-29T06:19:31.635Z,6.60
2023-03-29T06:21:58.112Z,6.80
2023-03-29T06:24:24.505Z,6.70
2023-03-29T06:26:50.993Z,6.50
2023-03-29T06:29:17.348Z,6.41
2023-03-29T06:31:44.160Z,6.41
2023-03-29T06:34:10.585Z,6.76
2023-03-29T06:36:36.982Z,6.73
2023-03-29T06:39:03.989Z,7.07
2023-03-29T06:41:30.360Z,6.72
2023-03-29T06:43:57.616Z,6.71
2023-03-29T06:46:24.207Z,6.74
2023-03-29T06:48:51.630Z,6.79
2023-03-29T06:51:23.495Z,6.91
2023-03-29T06:53:50.396Z,7.40
2023-03-29T06:56:16.926Z,7.40
2023-03-29T06:58:43.792Z,7.43
2023-03-29T07:01:11.183Z,8.04
2023-03-29T07:03:37.793Z,7.94
2023-03-29T07:06:05.076Z,7.69
2023-03-29T07:08:31.899Z,7.62
2023-03-29T07:10:58.835Z,7.91
2023-03-29T07:13:25.796Z,7.78
2023-03-29T07:15:52.640Z,7.78
2023-03-29T07:18:19.384Z,7.56
2023-03-29T07:20:46.275Z,7.79
2023-03-29T07:23:12.872Z,7.99
2023-03-29T07:25:39.240Z,8.04
2023-03-29T07:28:05.609Z,7.90
2023-03-29T07:30:35.156Z,7.87
2023-03-29T07:33:04.514Z,7.97
2023-03-29T07:35:31.217Z,8.84
2023-03-29T07:37:57.608Z,8.70
2023-03-29T07:40:24.728Z,9.01
2023-03-29T07:42:53.504Z,9.16
2023-03-29T07:45:28.858Z,9.32
2023-03-29T07:47:59.955Z,9.47
2023-03-29T07:50:28.170Z,8.99
2023-03-29T07:52:54.850Z,9.24
2023-03-29T07:55:22.067Z,9.24
2023-03-29T07:57:49.636Z,9.31
2023-03-29T08:00:17.091Z,9.25
2023-03-29T08:02:48.149Z,9.61
2023-03-29T08:05:19.004Z,9.29
2023-03-29T08:07:50.060Z,9.08
2023-03-29T08:10:21.449Z,9.04
2023-03-29T08:12:49.477Z,9.34
2023-03-29T08:15:16.371Z,9.21
2023-03-29T08:17:46.347Z,9.29
2023-03-29T08:20:15.332Z,9.67
2023-03-29T08:22:42.015Z,9.73
2023-03-29T08:25:13.938Z,9.70
2023-03-29T08:27:40.521Z,9.72
2023-03-29T08:30:10.916Z,9.94
2023-03-29T08:32:37.953Z,10.16
2023-03-29T08:35:09.916Z,10.37
2023-03-29T08:37:37.462Z,10.56
2023-03-29T08:40:05.272Z,10.64
2023-03-29T08:42:56.662Z,11.01
2023-03-29T08:45:52.045Z,11.04
2023-03-29T08:48:26.161Z,10.96
2023-03-29T08:51:06.144Z,11.17
2023-03-29T08:53:52.520Z,10.91
2023-03-29T08:56:24.179Z,10.92
2023-03-29T08:58:52.249Z,10.62
2023-03-29T09:01:20.408Z,11.02
2023-03-29T09:04:03.897Z,10.80
2023-03-29T09:06:30.551Z,10.80
2023-03-29T09:08:57.374Z,10.95
2023-03-29T09:11:24.057Z,10.99
2023-03-29T09:13:56.969Z,11.15
2023-03-29T09:16:44.706Z,11.32
2023-03-29T09:19:44.748Z,11.41
2023-03-29T09:22:39.785Z,11.29
2023-03-29T09:25:26.651Z,11.41
2023-03-29T09:28:13.597Z,12.22
2023-03-29T09:30:42.190Z,12.72
2023-03-29T09:33:32.773Z,13.16
2023-03-29T09:36:21.888Z,13.37
2023-03-29T09:38:49.940Z,14.16
2023-03-29T09:41:38.010Z,14.36
2023-03-29T09:44:24.207Z,14.53
2023-03-29T09:47:06.232Z,13.71
2023-03-29T09:49:38.308Z,13.47
2023-03-29T09:52:11.528Z,13.62
2023-03-29T09:54:38.377Z,13.56
2023-03-29T09:57:04.925Z,13.41
2023-03-29T09:59:31.590Z,12.82
2023-03-29T10:02:11.086Z,12.45
2023-03-29T10:04:37.749Z,12.14
2023-03-29T10:07:06.432Z,12.15
2023-03-29T10:09:33.285Z,11.74
2023-03-29T10:12:01.721Z,11.61
2023-03-29T10:14:36.404Z,12.00
2023-03-29T10:17:13.850Z,12.03
2023-03-29T10:19:49.735Z,12.52
2023-03-29T10:22:26.203Z,12.70
2023-03-29T10:24:54.994Z,12.99
2023-03-29T10:27:28.136Z,12.85
2023-03-29T10:29:56.801Z,12.93
2023-03-29T10:32:27.292Z,12.85
2023-03-29T10:34:55.300Z,13.05
2023-03-29T10:37:22.061Z,12.86
2023-03-29T10:39:50.680Z,12.76
2023-03-29T10:42:20.015Z,12.83
2023-03-29T10:44:55.180Z,12.88
2023-03-29T10:47:23.442Z,13.03
2023-03-29T10:49:57.383Z,12.94
2023-03-29T10:52:24.545Z,12.63
2023-03-29T10:54:54.912Z,13.16
2023-03-29T10:57:37.566Z,13.29
2023-03-29T11:00:14.448Z,13.40
2023-03-29T11:02:44.104Z,13.39
2023-03-29T11:05:19.752Z,13.35
2023-03-29T11:08:07.845Z,13.35
2023-03-29T11:10:51.120Z,13.05
2023-03-29T11:13:37.601Z,12.71
2023-03-29T11:16:22.528Z,13.12
2023-03-29T11:18:55.732Z,13.22
2023-03-29T11:21:44.092Z,13.18
2023-03-29T11:24:28.638Z,13.72
2023-03-29T11:27:07.063Z,13.59
2023-03-29T11:29:48.400Z,13.70
2023-03-29T11:32:25.483Z,13.82
2023-03-29T11:35:14.224Z,13.94
2023-03-29T11:37:43.674Z,13.66
2023-03-29T11:40:31.904Z,13.57
2023-03-29T11:43:02.498Z,13.60
2023-03-29T11:45:38.104Z,13.78
2023-03-29T11:48:10.614Z,13.80
2023-03-29T11:51:06.425Z,13.60
2023-03-29T11:53:44.150Z,13.30
2023-03-29T11:56:19.462Z,13.14
2023-03-29T11:58:52.273Z,13.74
2023-03-29T12:01:48.823Z,13.81
2023-03-29T12:04:24.926Z,13.80
2023-03-29T12:07:04.901Z,13.59
2023-03-29T12:09:39.422Z,13.53
2023-03-29T12:12:17.822Z,14.03
2023-03-29T12:14:56.276Z,14.08
2023-03-29T12:17:34.406Z,13.93
2023-03-29T12:20:03.991Z,14.56
2023-03-29T12:22:31.544Z,14.64
2023-03-29T12:24:59.457Z,14.94
2023-03-29T12:27:30.208Z,14.82
2023-03-29T12:30:34.668Z,14.69
2023-03-29T12:33:30.349Z,15.32
2023-03-29T12:36:09.098Z,15.07
2023-03-29T12:38:36.764Z,14.64
2023-03-29T12:41:14.260Z,15.09
2023-03-29T12:43:41.781Z,15.23
2023-03-29T12:46:11.328Z,14.83
2023-03-29T12:48:41.046Z,14.44
2023-03-29T12:51:19.994Z,14.68
2023-03-29T12:53:50.898Z,14.74
2023-03-29T12:56:20.531Z,14.89
2023-03-29T12:59:06.058Z,15.02
2023-03-29T13:01:34.601Z,14.70
2023-03-29T13:04:01.272Z,15.03
2023-03-29T13:06:32.864Z,14.50
2023-03-29T13:09:19.924Z,14.32
2023-03-29T13:11:54.811Z,14.52
2023-03-29T13:14:25.636Z,14.75
2023-03-29T13:16:52.237Z,14.63
2023-03-29T13:19:39.016Z,15.03
2023-03-29T13:22:17.873Z,15.13
2023-03-29T13:25:16.903Z,14.82
2023-03-29T13:28:02.213Z,15.39
2023-03-29T13:30:34.911Z,15.04
2023-03-29T13:33:16.906Z,14.87
2023-03-29T13:36:02.598Z,14.83
2023-03-29T13:38:29.454Z,15.19
2023-03-29T13:41:01.408Z,14.88
2023-03-29T13:43:54.224Z,15.20
2023-03-29T13:46:22.749Z,15.19
2023-03-29T13:49:02.110Z,15.00
2023-03-29T13:51:37.089Z,15.59
2023-03-29T13:54:13.546Z,15.46
2023-03-29T13:56:49.268Z,15.02
2023-03-29T13:59:19.865Z,15.37
2023-03-29T14:01:52.748Z,15.12
2023-03-29T14:04:28.208Z,15.00
2023-03-29T14:06:56.240Z,15.21
2023-03-29T14:09:27.663Z,15.12
2023-03-29T14:11:54.201Z,15.32
2023-03-29T14:14:26.071Z,15.21
2023-03-29T14:16:55.544Z,15.42
2023-03-29T14:19:31.004Z,15.30
2023-03-29T14:21:59.474Z,15.56
2023-03-29T14:24:34.029Z,16.01
2023-03-29T14:27:04.150Z,16.02
2023-03-29T14:29:34.955Z,16.07
2023-03-29T14:32:36.742Z,15.79
2023-03-29T14:35:03.988Z,15.80
2023-03-29T14:37:30.498Z,15.82
2023-03-29T14:39:58.784Z,15.91
2023-03-29T14:42:27.975Z,15.79
2023-03-29T14:45:02.148Z,15.79
2023-03-29T14:47:31.694Z,15.99
2023-03-29T14:50:00.391Z,15.57
2023-03-29T14:52:28.227Z,15.47
2023-03-29T14:54:57.111Z,15.52
2023-03-29T14:57:27.018Z,15.91
2023-03-29T14:59:58.902Z,15.60
2023-03-29T15:02:33.609Z,15.28
2023-03-29T15:05:03.017Z,15.64
2023-03-29T15:07:29.731Z,15.52
2023-03-29T15:09:58.689Z,15.39
2023-03-29T15:12:28.439Z,15.82
2023-03-29T15:14:55.146Z,15.22
2023-03-29T15:17:50.401Z,15.25
2023-03-29T15:20:24.023Z,15.37
2023-03-29T15:22:58.820Z,15.55
2023-03-29T15:25:45.752Z,15.55
2023-03-29T15:28:29.525Z,15.35
2023-03-29T15:31:07.980Z,15.41
2023-03-29T15:33:39.782Z,15.25
2023-03-29T15:36:08.903Z,15.27
2023-03-29T15:38:43.040Z,15.09
2023-03-29T15:41:12.951Z,15.12
2023-03-29T15:43:39.350Z,15.27
2023-03-29T15:46:05.928Z,14.96
2023-03-29T15:48:32.451Z,15.33
2023-03-29T15:51:02.013Z,15.10
2023-03-29T15:53:30.305Z,15.22
2023-03-29T15:56:01.310Z,15.36
2023-03-29T15:58:30.813Z,15.57
2023-03-29T16:01:30.189Z,15.43
2023-03-29T16:03:56.738Z,14.90
2023-03-29T16:06:24.519Z,15.09
2023-03-29T16:08:51.076Z,15.11
2023-03-29T16:11:17.922Z,15.20
2023-03-29T16:13:44.371Z,14.72
2023-03-29T16:16:11.427Z,14.85
2023-03-29T16:18:37.970Z,14.59
2023-03-29T16:21:04.647Z,14.88
2023-03-29T16:23:31.039Z,15.06
2023-03-29T16:25:57.392Z,14.82
2023-03-29T16:28:23.732Z,14.90
2023-03-29T16:30:50.329Z,14.96
2023-03-29T16:33:16.740Z,14.62
2023-03-29T16:35:43.274Z,14.81
2023-03-29T16:38:09.695Z,14.91
2023-03-29T16:40:36.519Z,14.84
2023-03-29T16:43:03.336Z,15.07
2023-03-29T16:45:29.806Z,14.68
2023-03-29T16:47:56.561Z,14.69
2023-03-29T16:50:23.140Z,14.66
2023-03-29T16:52:49.818Z,14.50
2023-03-29T16:55:16.254Z,14.50
2023-03-29T16:57:42.638Z,14.64
2023-03-29T17:00:10.500Z,14.61
2023-03-29T17:02:37.499Z,14.98
2023-03-29T17:05:04.137Z,14.65
2023-03-29T17:07:30.530Z,14.47
2023-03-29T17:09:56.903Z,14.46
2023-03-29T17:12:23.645Z,14.52
2023-03-29T17:14:49.996Z,14.73
2023-03-29T17:17:16.514Z,14.59
2023-03-29T17:19:42.909Z,14.41
2023-03-29T17:22:09.282Z,14.34
2023-03-29T17:24:35.675Z,14.22
2023-03-29T17:27:02.036Z,14.35
2023-03-29T17:29:28.356Z,14.02
2023-03-29T17:31:55.029Z,14.15
2023-03-29T17:34:22.615Z,14.04
2023-03-29T17:36:49.256Z,14.00
2023-03-29T17:39:15.731Z,14.10
2023-03-29T17:41:42.383Z,14.02
2023-03-29T17:44:09.104Z,14.06
2023-03-29T17:46:35.685Z,13.68
2023-03-29T17:49:02.032Z,14.04
2023-03-29T17:51:28.383Z,13.83
2023-03-29T17:53:54.726Z,13.68
2023-03-29T17:56:22.216Z,13.46
2023-03-29T17:58:49.661Z,13.30
2023-03-29T18:01:17.760Z,13.71
2023-03-29T18:03:44.163Z,13.63
2023-03-29T18:06:10.518Z,13.59
2023-03-29T18:08:37.021Z,13.71
2023-03-29T18:11:08.077Z,13.41
2023-03-29T18:13:34.436Z,13.80
2023-03-29T18:16:01.430Z,13.38
2023-03-29T18:18:27.998Z,13.13
2023-03-29T18:20:54.379Z,13.07
2023-03-29T18:23:20.846Z,12.98
2023-03-29T18:25:47.269Z,13.42
2023-03-29T18:28:13.672Z,13.16
2023-03-29T18:30:40.068Z,13.16
2023-03-29T18:33:06.529Z,13.03
2023-03-29T18:35:33.057Z,12.92
2023-03-29T18:37:59.538Z,12.94
2023-03-29T18:40:25.904Z,13.21
2023-03-29T18:42:52.295Z,13.24
2023-03-29T18:45:18.820Z,13.19
2023-03-29T18:47:45.271Z,13.04
2023-03-29T18:50:11.737Z,13.01
2023-03-29T18:52:38.051Z,13.44
2023-03-29T18:55:05.503Z,13.87
2023-03-29T18:57:31.981Z,13.77
2023-03-29T18:59:58.373Z,13.57
2023-03-29T19:02:24.801Z,13.42
2023-03-29T19:04:51.236Z,13.71
2023-03-29T19:07:17.548Z,13.70
2023-03-29T19:09:43.927Z,13.76
2023-03-29T19:12:10.376Z,13.90
2023-03-29T19:14:36.775Z,13.49
2023-03-29T19:17:03.161Z,13.38
2023-03-29T19:19:29.765Z,13.29
2023-03-29T19:21:57.617Z,13.25
2023-03-29T19:24:25.514Z,13.62
2023-03-29T19:26:51.871Z,13.35
2023-03-29T19:29:18.440Z,13.71
2023-03-29T19:31:45.071Z,13.56
2023-03-29T19:34:11.546Z,13.40
2023-03-29T19:36:38.586Z,13.65
2023-03-29T19:39:05.445Z,13.45
2023-03-29T19:41:31.838Z,13.48
2023-03-29T19:43:58.181Z,13.26
2023-03-29T19:46:24.607Z,13.30
2023-03-29T19:48:50.969Z,13.22
2023-03-29T19:51:17.318Z,13.43
2023-03-29T19:53:43.885Z,13.12
2023-03-29T19:56:10.286Z,13.22
2023-03-29T19:58:36.649Z,13.32
2023-03-29T20:01:03.490Z,13.24
2023-03-29T20:03:30.045Z,13.53
2023-03-29T20:05:57.001Z,13.68
2023-03-29T20:08:24.203Z,13.19
2023-03-29T20:11:03.818Z,13.30
2023-03-29T20:13:38.167Z,13.59
2023-03-29T20:16:07.636Z,13.36
2023-03-29T20:18:34.102Z,13.50
2023-03-29T20:21:00.919Z,13.54
2023-03-29T20:23:27.566Z,13.80
2023-03-29T20:25:54.246Z,13.97
2023-03-29T20:28:20.942Z,14.08
2023-03-29T20:30:47.305Z,13.69
2023-03-29T20:33:13.693Z,13.86
2023-03-29T20:35:40.075Z,13.48
2023-03-29T20:38:06.506Z,13.43
2023-03-29T20:40:34.239Z,13.27
2023-03-29T20:43:00.695Z,13.79
2023-03-29T20:45:27.192Z,13.47
2023-03-29T20:47:53.552Z,13.86
2023-03-29T20:50:20.013Z,13.39
2023-03-29T20:52:46.516Z,13.83
2023-03-29T20:55:13.037Z,13.60
2023-03-29T20:57:39.474Z,14.02
2023-03-29T21:00:06.903Z,13.98
2023-03-29T21:02:33.342Z,13.82
2023-03-29T21:04:59.758Z,14.00
2023-03-29T21:07:26.125Z,13.79
2023-03-29T21:09:52.538Z,13.95
2023-03-29T21:12:18.998Z,13.86
2023-03-29T21:14:45.393Z,13.46
2023-03-29T21:17:11.756Z,13.70
2023-03-29T21:19:38.488Z,13.56
2023-03-29T21:22:05.499Z,13.61
2023-03-29T21:24:32.144Z,13.82
2023-03-29T21:26:58.854Z,13.69
2023-03-29T21:29:25.545Z,13.57
2023-03-29T21:31:51.905Z,14.09
2023-03-29T21:34:18.659Z,13.69
2023-03-29T21:36:45.019Z,14.22
2023-03-29T21:39:11.400Z,14.42
2023-03-29T21:41:37.759Z,13.93
2023-03-29T21:44:04.144Z,13.83
2023-03-29T21:46:30.563Z,14.29
2023-03-29T21:48:57.019Z,13.86
2023-03-29T21:51:23.407Z,13.58
2023-03-29T21:53:49.780Z,13.47
2023-03-29T21:56:16.195Z,13.58
2023-03-29T21:58:42.698Z,13.78
2023-03-29T22:01:09.169Z,13.62
2023-03-29T22:03:37.035Z,13.89
2023-03-29T22:06:06.766Z,14.11
2023-03-29T22:08:33.804Z,13.83
2023-03-29T22:11:07.713Z,13.61
2023-03-29T22:13:34.662Z,13.59
2023-03-29T22:16:03.074Z,13.25
2023-03-29T22:18:31.656Z,13.29
2023-03-29T22:20:58.069Z,13.45
2023-03-29T22:23:24.417Z,13.49
2023-03-29T22:25:50.744Z,13.22
2023-03-29T22:28:17.209Z,13.33
2023-03-29T22:30:43.563Z,13.46
2023-03-29T22:33:10.006Z,13.23
2023-03-29T22:35:36.464Z,13.25
2023-03-29T22:38:02.841Z,13.15
2023-03-29T22:40:29.226Z,13.38
2023-03-29T22:42:55.607Z,13.32
2023-03-29T22:45:21.993Z,13.35
2023-03-29T22:47:48.452Z,13.28
2023-03-29T22:50:14.853Z,13.29
2023-03-29T22:52:41.175Z,13.17
2023-03-29T22:55:08.212Z,13.23
2023-03-29T22:57:34.553Z,13.18
2023-03-29T23:00:00.942Z,13.47
2023-03-29T23:02:27.323Z,13.35
2023-03-29T23:04:53.948Z,13.29
2023-03-29T23:07:20.387Z,13.27
2023-03-29T23:09:46.888Z,13.34
2023-03-29T23:12:13.216Z,13.88
2023-03-29T23:14:39.548Z,13.59
2023-03-29T23:17:06.190Z,13.46
2023-03-29T23:19:32.661Z,13.55
2023-03-29T23:21:59.080Z,13.88
2023-03-29T23:24:25.389Z,13.62
2023-03-29T23:26:51.847Z,13.54
2023-03-29T23:29:18.164Z,13.95
2023-03-29T23:31:44.546Z,13.70
2023-03-29T23:34:10.992Z,13.93
2023-03-29T23:36:37.495Z,13.93
2023-03-29T23:39:04.041Z,13.80
2023-03-29T23:41:30.370Z,13.73
2023-03-29T23:43:56.703Z,13.88
2023-03-29T23:46:23.439Z,13.93
2023-03-29T23:48:50.601Z,13.63
2023-03-29T23:51:19.762Z,13.46
2023-03-29T23:53:46.206Z,13.42
2023-03-29T23:56:12.524Z,13.49
2023-03-29T23:58:38.828Z,13.66
